sensor_id;sensor_type;location;lat;lon;timestamp;temperature;humidity
21830;DHT22;11077;50.264;6.798;2023-02-18T00:00:58;8.50;99.90
21830;DHT22;11077;50.264;6.798;2023-02-18T00:03:26;8.50;99.90
21830;DHT22;11077;50.264;6.798;2023-02-18T00:05:54;8.50;99.90
21830;DHT22;11077;50.264;6.798;2023-02-18T00:08:22;8.40;99.90
21830;DHT22;11077;50.264;6.798;2023-02-18T00:10:49;8.40;99.90
21830;DHT22;11077;50.264;6.798;2023-02-18T00:13:16;8.40;99.90
21830;DHT22;11077;50.264;6.798;2023-02-18T00:15:45;8.50;99.90
21830;DHT22;11077;50.264;6.798;2023-02-18T00:18:12;8.50;99.90
21830;DHT22;11077;50.264;6.798;2023-02-18T00:20:40;8.50;99.90
21830;DHT22;11077;50.264;6.798;2023-02-18T00:23:07;8.50;99.90
21830;DHT22;11077;50.264;6.798;2023-02-18T00:25:34;8.50;99.90
21830;DHT22;11077;50.264;6.798;2023-02-18T00:28:02;8.50;99.90
21830;DHT22;11077;50.264;6.798;2023-02-18T00:30:29;8.50;99.90
21830;DHT22;11077;50.264;6.798;2023-02-18T00:32:58;8.50;99.90
21830;DHT22;11077;50.264;6.798;2023-02-18T00:35:25;8.50;99.90
21830;DHT22;11077;50.264;6.798;2023-02-18T00:37:53;8.50;99.90
21830;DHT22;11077;50.264;6.798;2023-02-18T00:40:20;8.40;99.90
21830;DHT22;11077;50.264;6.798;2023-02-18T00:42:47;8.50;99.90
21830;DHT22;11077;50.264;6.798;2023-02-18T00:45:15;8.50;99.90
21830;DHT22;11077;50.264;6.798;2023-02-18T00:47:43;8.40;99.90
21830;DHT22;11077;50.264;6.798;2023-02-18T00:50:11;8.50;99.90
21830;DHT22;11077;50.264;6.798;2023-02-18T00:52:39;8.40;99.90
21830;DHT22;11077;50.264;6.798;2023-02-18T00:55:06;8.40;99.90
21830;DHT22;11077;50.264;6.798;2023-02-18T00:57:34;8.40;99.90
21830;DHT22;11077;50.264;6.798;2023-02-18T01:00:02;8.40;99.90
21830;DHT22;11077;50.264;6.798;2023-02-18T01:02:29;8.40;99.90
21830;DHT22;11077;50.264;6.798;2023-02-18T01:04:57;8.50;99.90
21830;DHT22;11077;50.264;6.798;2023-02-18T01:07:26;8.40;99.90
21830;DHT22;11077;50.264;6.798;2023-02-18T01:09:53;8.50;99.90
21830;DHT22;11077;50.264;6.798;2023-02-18T01:12:21;8.50;99.90
21830;DHT22;11077;50.264;6.798;2023-02-18T01:14:48;8.50;99.90
21830;DHT22;11077;50.264;6.798;2023-02-18T01:17:15;8.40;99.90
21830;DHT22;11077;50.264;6.798;2023-02-18T01:19:42;8.50;99.90
21830;DHT22;11077;50.264;6.798;2023-02-18T01:22:10;8.40;99.90
21830;DHT22;11077;50.264;6.798;2023-02-18T01:24:39;8.50;99.90
21830;DHT22;11077;50.264;6.798;2023-02-18T01:27:06;8.50;99.90
21830;DHT22;11077;50.264;6.798;2023-02-18T01:29:33;8.40;99.90
21830;DHT22;11077;50.264;6.798;2023-02-18T01:32:01;8.50;99.90
21830;DHT22;11077;50.264;6.798;2023-02-18T01:34:28;8.40;99.90
21830;DHT22;11077;50.264;6.798;2023-02-18T01:36:58;8.40;99.90
21830;DHT22;11077;50.264;6.798;2023-02-18T01:39:25;8.50;99.90
21830;DHT22;11077;50.264;6.798;2023-02-18T01:41:54;8.50;99.90
21830;DHT22;11077;50.264;6.798;2023-02-18T01:44:24;8.40;99.90
21830;DHT22;11077;50.264;6.798;2023-02-18T01:46:52;8.40;99.90
21830;DHT22;11077;50.264;6.798;2023-02-18T01:49:22;8.40;99.90
21830;DHT22;11077;50.264;6.798;2023-02-18T01:51:58;8.40;99.90
21830;DHT22;11077;50.264;6.798;2023-02-18T01:54:29;8.30;99.90
21830;DHT22;11077;50.264;6.798;2023-02-18T01:57:02;8.40;99.90
21830;DHT22;11077;50.264;6.798;2023-02-18T01:59:33;8.30;99.90
21830;DHT22;11077;50.264;6.798;2023-02-18T02:02:03;8.40;99.90
21830;DHT22;11077;50.264;6.798;2023-02-18T02:04:32;8.30;99.90
21830;DHT22;11077;50.264;6.798;2023-02-18T02:06:59;8.30;99.90
21830;DHT22;11077;50.264;6.798;2023-02-18T02:09:28;8.40;99.90
21830;DHT22;11077;50.264;6.798;2023-02-18T02:12:19;8.40;99.90
21830;DHT22;11077;50.264;6.798;2023-02-18T02:15:08;8.30;99.90
21830;DHT22;11077;50.264;6.798;2023-02-18T02:17:47;8.30;99.90
21830;DHT22;11077;50.264;6.798;2023-02-18T02:20:46;8.30;99.90
21830;DHT22;11077;50.264;6.798;2023-02-18T02:30:14;8.30;99.90
21830;DHT22;11077;50.264;6.798;2023-02-18T02:36:04;8.30;99.90
21830;DHT22;11077;50.264;6.798;2023-02-18T02:38:39;8.20;99.90
21830;DHT22;11077;50.264;6.798;2023-02-18T02:41:12;8.30;99.90
21830;DHT22;11077;50.264;6.798;2023-02-18T02:43:49;8.30;99.90
21830;DHT22;11077;50.264;6.798;2023-02-18T02:46:22;8.30;99.90
21830;DHT22;11077;50.264;6.798;2023-02-18T02:48:55;8.30;99.90
21830;DHT22;11077;50.264;6.798;2023-02-18T02:51:29;8.20;99.90
21830;DHT22;11077;50.264;6.798;2023-02-18T02:54:10;8.20;99.90
21830;DHT22;11077;50.264;6.798;2023-02-18T02:56:38;8.20;99.90
21830;DHT22;11077;50.264;6.798;2023-02-18T02:59:11;8.20;99.90
21830;DHT22;11077;50.264;6.798;2023-02-18T03:01:52;8.20;99.90
21830;DHT22;11077;50.264;6.798;2023-02-18T03:04:53;8.30;99.90
21830;DHT22;11077;50.264;6.798;2023-02-18T03:07:38;8.20;99.90
21830;DHT22;11077;50.264;6.798;2023-02-18T03:10:27;8.30;99.90
21830;DHT22;11077;50.264;6.798;2023-02-18T03:13:06;8.30;99.90
21830;DHT22;11077;50.264;6.798;2023-02-18T03:15:46;8.20;99.90
21830;DHT22;11077;50.264;6.798;2023-02-18T03:18:18;8.20;99.90
21830;DHT22;11077;50.264;6.798;2023-02-18T03:20:52;8.20;99.90
21830;DHT22;11077;50.264;6.798;2023-02-18T03:23:26;8.20;99.90
21830;DHT22;11077;50.264;6.798;2023-02-18T03:25:56;8.30;99.90
21830;DHT22;11077;50.264;6.798;2023-02-18T03:28:27;8.20;99.90
21830;DHT22;11077;50.264;6.798;2023-02-18T03:30:59;8.20;99.90
21830;DHT22;11077;50.264;6.798;2023-02-18T03:33:31;8.30;99.90
21830;DHT22;11077;50.264;6.798;2023-02-18T03:36:00;8.20;99.90
21830;DHT22;11077;50.264;6.798;2023-02-18T03:38:34;8.20;99.90
21830;DHT22;11077;50.264;6.798;2023-02-18T03:41:03;8.20;99.90
21830;DHT22;11077;50.264;6.798;2023-02-18T03:43:33;8.20;99.90
21830;DHT22;11077;50.264;6.798;2023-02-18T03:46:00;8.20;99.90
21830;DHT22;11077;50.264;6.798;2023-02-18T03:48:28;8.20;99.90
21830;DHT22;11077;50.264;6.798;2023-02-18T03:50:55;8.20;99.90
21830;DHT22;11077;50.264;6.798;2023-02-18T03:53:23;8.20;99.90
21830;DHT22;11077;50.264;6.798;2023-02-18T03:55:51;8.20;99.90
21830;DHT22;11077;50.264;6.798;2023-02-18T03:58:19;8.20;99.90
21830;DHT22;11077;50.264;6.798;2023-02-18T04:00:46;8.20;99.90
21830;DHT22;11077;50.264;6.798;2023-02-18T04:03:13;8.20;99.90
21830;DHT22;11077;50.264;6.798;2023-02-18T04:05:40;8.20;99.90
21830;DHT22;11077;50.264;6.798;2023-02-18T04:08:08;8.20;99.90
21830;DHT22;11077;50.264;6.798;2023-02-18T04:10:35;8.20;99.90
21830;DHT22;11077;50.264;6.798;2023-02-18T04:13:04;8.20;99.90
21830;DHT22;11077;50.264;6.798;2023-02-18T04:15:31;8.20;99.90
21830;DHT22;11077;50.264;6.798;2023-02-18T04:17:59;8.20;99.90
21830;DHT22;11077;50.264;6.798;2023-02-18T04:20:26;8.20;99.90
21830;DHT22;11077;50.264;6.798;2023-02-18T04:22:53;8.20;99.90
21830;DHT22;11077;50.264;6.798;2023-02-18T04:25:21;8.20;99.90
21830;DHT22;11077;50.264;6.798;2023-02-18T04:27:48;8.20;99.90
21830;DHT22;11077;50.264;6.798;2023-02-18T04:30:17;8.20;99.90
21830;DHT22;11077;50.264;6.798;2023-02-18T04:32:44;8.20;99.90
21830;DHT22;11077;50.264;6.798;2023-02-18T04:35:12;8.20;99.90
21830;DHT22;11077;50.264;6.798;2023-02-18T04:37:39;8.20;99.90
21830;DHT22;11077;50.264;6.798;2023-02-18T04:40:07;8.20;99.90
21830;DHT22;11077;50.264;6.798;2023-02-18T04:42:35;8.20;99.90
21830;DHT22;11077;50.264;6.798;2023-02-18T04:45:02;8.20;99.90
21830;DHT22;11077;50.264;6.798;2023-02-18T04:47:31;8.20;99.90
21830;DHT22;11077;50.264;6.798;2023-02-18T04:49:58;8.20;99.90
21830;DHT22;11077;50.264;6.798;2023-02-18T04:52:26;8.20;99.90
21830;DHT22;11077;50.264;6.798;2023-02-18T04:54:53;8.10;99.90
21830;DHT22;11077;50.264;6.798;2023-02-18T04:57:20;8.10;99.90
21830;DHT22;11077;50.264;6.798;2023-02-18T04:59:48;8.10;99.90
21830;DHT22;11077;50.264;6.798;2023-02-18T05:02:15;8.10;99.90
21830;DHT22;11077;50.264;6.798;2023-02-18T05:04:44;8.10;99.90
21830;DHT22;11077;50.264;6.798;2023-02-18T05:07:11;8.10;99.90
21830;DHT22;11077;50.264;6.798;2023-02-18T05:09:38;8.10;99.90
21830;DHT22;11077;50.264;6.798;2023-02-18T05:12:06;8.10;99.90
21830;DHT22;11077;50.264;6.798;2023-02-18T05:14:33;8.10;99.90
21830;DHT22;11077;50.264;6.798;2023-02-18T05:17:01;8.10;99.90
21830;DHT22;11077;50.264;6.798;2023-02-18T05:19:28;8.10;99.90
21830;DHT22;11077;50.264;6.798;2023-02-18T05:21:57;8.00;99.90
21830;DHT22;11077;50.264;6.798;2023-02-18T05:24:24;8.10;99.90
21830;DHT22;11077;50.264;6.798;2023-02-18T05:26:51;8.00;99.90
21830;DHT22;11077;50.264;6.798;2023-02-18T05:29:19;8.10;99.90
21830;DHT22;11077;50.264;6.798;2023-02-18T05:31:46;8.00;99.90
21830;DHT22;11077;50.264;6.798;2023-02-18T05:34:13;8.00;99.90
21830;DHT22;11077;50.264;6.798;2023-02-18T05:36:40;8.00;99.90
21830;DHT22;11077;50.264;6.798;2023-02-18T05:39:09;8.00;99.90
21830;DHT22;11077;50.264;6.798;2023-02-18T05:41:36;8.00;99.90
21830;DHT22;11077;50.264;6.798;2023-02-18T05:44:04;8.00;99.90
21830;DHT22;11077;50.264;6.798;2023-02-18T05:46:48;8.00;99.90
21830;DHT22;11077;50.264;6.798;2023-02-18T05:49:16;7.90;99.90
21830;DHT22;11077;50.264;6.798;2023-02-18T05:51:43;7.90;99.90
21830;DHT22;11077;50.264;6.798;2023-02-18T05:54:12;7.90;99.90
21830;DHT22;11077;50.264;6.798;2023-02-18T05:56:40;7.80;99.90
21830;DHT22;11077;50.264;6.798;2023-02-18T05:59:08;7.90;99.90
21830;DHT22;11077;50.264;6.798;2023-02-18T06:01:35;7.90;99.90
21830;DHT22;11077;50.264;6.798;2023-02-18T06:04:02;7.80;99.90
21830;DHT22;11077;50.264;6.798;2023-02-18T06:06:29;7.80;99.90
21830;DHT22;11077;50.264;6.798;2023-02-18T06:08:57;7.80;99.90
21830;DHT22;11077;50.264;6.798;2023-02-18T06:11:25;7.80;99.90
21830;DHT22;11077;50.264;6.798;2023-02-18T06:13:53;7.80;99.90
21830;DHT22;11077;50.264;6.798;2023-02-18T06:16:20;7.70;99.90
21830;DHT22;11077;50.264;6.798;2023-02-18T06:18:47;7.80;99.90
21830;DHT22;11077;50.264;6.798;2023-02-18T06:21:15;7.70;99.90
21830;DHT22;11077;50.264;6.798;2023-02-18T06:23:42;7.70;99.90
21830;DHT22;11077;50.264;6.798;2023-02-18T06:26:09;7.60;99.90
21830;DHT22;11077;50.264;6.798;2023-02-18T06:28:38;7.60;99.90
21830;DHT22;11077;50.264;6.798;2023-02-18T06:31:06;7.60;99.90
21830;DHT22;11077;50.264;6.798;2023-02-18T06:33:33;7.60;99.90
21830;DHT22;11077;50.264;6.798;2023-02-18T06:36:03;7.60;99.90
21830;DHT22;11077;50.264;6.798;2023-02-18T06:38:34;7.60;99.90
21830;DHT22;11077;50.264;6.798;2023-02-18T06:41:01;7.60;99.90
21830;DHT22;11077;50.264;6.798;2023-02-18T06:43:29;7.60;99.90
21830;DHT22;11077;50.264;6.798;2023-02-18T06:45:58;7.60;99.90
21830;DHT22;11077;50.264;6.798;2023-02-18T06:48:25;7.50;99.90
21830;DHT22;11077;50.264;6.798;2023-02-18T06:50:53;7.50;99.90
21830;DHT22;11077;50.264;6.798;2023-02-18T06:53:20;7.50;99.90
21830;DHT22;11077;50.264;6.798;2023-02-18T06:55:48;7.50;99.90
21830;DHT22;11077;50.264;6.798;2023-02-18T06:58:15;7.50;99.90
21830;DHT22;11077;50.264;6.798;2023-02-18T07:00:45;7.40;99.90
21830;DHT22;11077;50.264;6.798;2023-02-18T07:03:14;7.40;99.90
21830;DHT22;11077;50.264;6.798;2023-02-18T07:05:41;7.50;99.90
21830;DHT22;11077;50.264;6.798;2023-02-18T07:08:09;7.40;99.90
21830;DHT22;11077;50.264;6.798;2023-02-18T07:10:36;7.40;99.90
21830;DHT22;11077;50.264;6.798;2023-02-18T07:13:04;7.40;99.90
21830;DHT22;11077;50.264;6.798;2023-02-18T07:15:31;7.40;99.90
21830;DHT22;11077;50.264;6.798;2023-02-18T07:17:59;7.40;99.90
21830;DHT22;11077;50.264;6.798;2023-02-18T07:20:28;7.40;99.90
21830;DHT22;11077;50.264;6.798;2023-02-18T07:22:55;7.50;99.90
21830;DHT22;11077;50.264;6.798;2023-02-18T07:25:24;7.40;99.90
21830;DHT22;11077;50.264;6.798;2023-02-18T07:27:52;7.40;99.90
21830;DHT22;11077;50.264;6.798;2023-02-18T07:30:19;7.40;99.90
21830;DHT22;11077;50.264;6.798;2023-02-18T07:32:46;7.50;99.90
21830;DHT22;11077;50.264;6.798;2023-02-18T07:35:15;7.40;99.90
21830;DHT22;11077;50.264;6.798;2023-02-18T07:37:48;7.40;99.90
21830;DHT22;11077;50.264;6.798;2023-02-18T07:40:17;7.40;99.90
21830;DHT22;11077;50.264;6.798;2023-02-18T07:42:45;7.40;99.90
21830;DHT22;11077;50.264;6.798;2023-02-18T07:45:13;7.40;99.90
21830;DHT22;11077;50.264;6.798;2023-02-18T07:47:40;7.40;99.90
21830;DHT22;11077;50.264;6.798;2023-02-18T07:50:10;7.40;99.90
21830;DHT22;11077;50.264;6.798;2023-02-18T07:52:37;7.40;99.90
21830;DHT22;11077;50.264;6.798;2023-02-18T07:55:07;7.40;99.90
21830;DHT22;11077;50.264;6.798;2023-02-18T07:57:34;7.40;99.90
21830;DHT22;11077;50.264;6.798;2023-02-18T08:00:22;7.40;99.90
21830;DHT22;11077;50.264;6.798;2023-02-18T08:02:50;7.30;99.90
21830;DHT22;11077;50.264;6.798;2023-02-18T08:05:17;7.40;99.90
21830;DHT22;11077;50.264;6.798;2023-02-18T08:07:45;7.40;99.90
21830;DHT22;11077;50.264;6.798;2023-02-18T08:10:16;7.40;99.90
21830;DHT22;11077;50.264;6.798;2023-02-18T08:12:43;7.40;99.90
21830;DHT22;11077;50.264;6.798;2023-02-18T08:15:11;7.40;99.90
21830;DHT22;11077;50.264;6.798;2023-02-18T08:17:39;7.40;99.90
21830;DHT22;11077;50.264;6.798;2023-02-18T08:20:07;7.40;99.90
21830;DHT22;11077;50.264;6.798;2023-02-18T08:22:35;7.30;99.90
21830;DHT22;11077;50.264;6.798;2023-02-18T08:25:03;7.30;99.90
21830;DHT22;11077;50.264;6.798;2023-02-18T08:27:32;7.30;99.90
21830;DHT22;11077;50.264;6.798;2023-02-18T08:30:00;7.30;99.90
21830;DHT22;11077;50.264;6.798;2023-02-18T08:32:28;7.30;99.90
21830;DHT22;11077;50.264;6.798;2023-02-18T08:34:55;7.40;99.90
21830;DHT22;11077;50.264;6.798;2023-02-18T08:37:23;7.30;99.90
21830;DHT22;11077;50.264;6.798;2023-02-18T08:39:50;7.30;99.90
21830;DHT22;11077;50.264;6.798;2023-02-18T08:42:18;7.30;99.90
21830;DHT22;11077;50.264;6.798;2023-02-18T08:44:47;7.30;99.90
21830;DHT22;11077;50.264;6.798;2023-02-18T08:47:14;7.30;99.90
21830;DHT22;11077;50.264;6.798;2023-02-18T08:49:43;7.30;99.90
21830;DHT22;11077;50.264;6.798;2023-02-18T08:52:10;7.30;99.90
21830;DHT22;11077;50.264;6.798;2023-02-18T08:54:38;7.30;99.90
21830;DHT22;11077;50.264;6.798;2023-02-18T08:57:05;7.30;99.90
21830;DHT22;11077;50.264;6.798;2023-02-18T08:59:32;7.30;99.90
21830;DHT22;11077;50.264;6.798;2023-02-18T09:02:01;7.20;99.90
21830;DHT22;11077;50.264;6.798;2023-02-18T09:04:29;7.20;99.90
21830;DHT22;11077;50.264;6.798;2023-02-18T09:06:57;7.10;99.90
21830;DHT22;11077;50.264;6.798;2023-02-18T09:09:24;7.10;99.90
21830;DHT22;11077;50.264;6.798;2023-02-18T09:11:52;7.10;99.90
21830;DHT22;11077;50.264;6.798;2023-02-18T09:14:19;7.10;99.90
21830;DHT22;11077;50.264;6.798;2023-02-18T09:16:46;7.10;99.90
21830;DHT22;11077;50.264;6.798;2023-02-18T09:19:16;7.10;99.90
21830;DHT22;11077;50.264;6.798;2023-02-18T09:21:44;7.10;99.90
21830;DHT22;11077;50.264;6.798;2023-02-18T09:24:11;7.10;99.90
21830;DHT22;11077;50.264;6.798;2023-02-18T09:26:39;7.10;99.90
21830;DHT22;11077;50.264;6.798;2023-02-18T09:29:06;7.10;99.90
21830;DHT22;11077;50.264;6.798;2023-02-18T09:31:33;7.10;99.90
21830;DHT22;11077;50.264;6.798;2023-02-18T09:34:03;7.20;99.90
21830;DHT22;11077;50.264;6.798;2023-02-18T09:36:31;7.20;99.90
21830;DHT22;11077;50.264;6.798;2023-02-18T09:38:59;7.30;99.90
21830;DHT22;11077;50.264;6.798;2023-02-18T09:41:33;7.30;99.90
21830;DHT22;11077;50.264;6.798;2023-02-18T09:44:08;7.30;99.90
21830;DHT22;11077;50.264;6.798;2023-02-18T09:46:40;7.30;99.90
21830;DHT22;11077;50.264;6.798;2023-02-18T09:49:15;7.30;99.90
21830;DHT22;11077;50.264;6.798;2023-02-18T09:51:45;7.30;99.90
21830;DHT22;11077;50.264;6.798;2023-02-18T09:54:16;7.30;99.90
21830;DHT22;11077;50.264;6.798;2023-02-18T09:56:44;7.30;99.90
21830;DHT22;11077;50.264;6.798;2023-02-18T09:59:15;7.30;99.90
21830;DHT22;11077;50.264;6.798;2023-02-18T10:01:45;7.30;99.90
21830;DHT22;11077;50.264;6.798;2023-02-18T10:04:16;7.30;99.90
21830;DHT22;11077;50.264;6.798;2023-02-18T10:06:48;7.30;99.90
21830;DHT22;11077;50.264;6.798;2023-02-18T10:09:19;7.30;99.90
21830;DHT22;11077;50.264;6.798;2023-02-18T10:11:51;7.30;99.90
21830;DHT22;11077;50.264;6.798;2023-02-18T10:14:21;7.30;99.90
21830;DHT22;11077;50.264;6.798;2023-02-18T10:16:50;7.30;99.90
21830;DHT22;11077;50.264;6.798;2023-02-18T10:19:22;7.30;99.90
21830;DHT22;11077;50.264;6.798;2023-02-18T10:21:52;7.30;99.90
21830;DHT22;11077;50.264;6.798;2023-02-18T10:24:29;7.30;99.90
21830;DHT22;11077;50.264;6.798;2023-02-18T10:26:58;7.30;99.90
21830;DHT22;11077;50.264;6.798;2023-02-18T10:29:26;7.30;99.90
21830;DHT22;11077;50.264;6.798;2023-02-18T10:31:56;7.30;99.90
21830;DHT22;11077;50.264;6.798;2023-02-18T10:34:38;7.30;99.90
21830;DHT22;11077;50.264;6.798;2023-02-18T10:37:27;7.30;99.90
21830;DHT22;11077;50.264;6.798;2023-02-18T10:40:02;7.20;99.90
21830;DHT22;11077;50.264;6.798;2023-02-18T10:42:41;7.20;99.90
21830;DHT22;11077;50.264;6.798;2023-02-18T10:45:22;7.30;99.90
21830;DHT22;11077;50.264;6.798;2023-02-18T10:48:02;7.40;99.90
21830;DHT22;11077;50.264;6.798;2023-02-18T10:50:36;7.40;99.90
21830;DHT22;11077;50.264;6.798;2023-02-18T10:53:12;7.40;99.90
21830;DHT22;11077;50.264;6.798;2023-02-18T10:55:42;7.50;99.90
21830;DHT22;11077;50.264;6.798;2023-02-18T10:58:29;7.50;99.90
21830;DHT22;11077;50.264;6.798;2023-02-18T11:00:59;7.60;99.90
21830;DHT22;11077;50.264;6.798;2023-02-18T11:03:39;7.60;99.90
21830;DHT22;11077;50.264;6.798;2023-02-18T11:06:15;7.70;99.90
21830;DHT22;11077;50.264;6.798;2023-02-18T11:08:46;7.70;99.90
21830;DHT22;11077;50.264;6.798;2023-02-18T11:11:17;7.70;99.90
21830;DHT22;11077;50.264;6.798;2023-02-18T11:13:52;7.80;99.90
21830;DHT22;11077;50.264;6.798;2023-02-18T11:16:21;7.80;99.90
21830;DHT22;11077;50.264;6.798;2023-02-18T11:18:49;7.90;99.90
21830;DHT22;11077;50.264;6.798;2023-02-18T11:21:25;7.90;99.90
21830;DHT22;11077;50.264;6.798;2023-02-18T11:23:57;7.90;99.90
21830;DHT22;11077;50.264;6.798;2023-02-18T11:26:33;7.90;99.90
21830;DHT22;11077;50.264;6.798;2023-02-18T11:29:05;7.90;99.90
21830;DHT22;11077;50.264;6.798;2023-02-18T11:31:40;7.90;99.90
21830;DHT22;11077;50.264;6.798;2023-02-18T11:34:14;7.90;99.90
21830;DHT22;11077;50.264;6.798;2023-02-18T11:36:42;7.90;99.90
21830;DHT22;11077;50.264;6.798;2023-02-18T11:39:19;7.90;99.90
21830;DHT22;11077;50.264;6.798;2023-02-18T11:41:52;7.90;99.90
21830;DHT22;11077;50.264;6.798;2023-02-18T11:44:23;7.90;99.90
21830;DHT22;11077;50.264;6.798;2023-02-18T11:46:59;8.00;99.90
21830;DHT22;11077;50.264;6.798;2023-02-18T11:49:27;7.90;99.90
21830;DHT22;11077;50.264;6.798;2023-02-18T11:52:02;8.00;99.90
21830;DHT22;11077;50.264;6.798;2023-02-18T11:54:31;8.00;99.90
21830;DHT22;11077;50.264;6.798;2023-02-18T11:57:02;8.00;99.90
21830;DHT22;11077;50.264;6.798;2023-02-18T11:59:33;8.00;99.90
21830;DHT22;11077;50.264;6.798;2023-02-18T12:02:18;8.00;99.90
21830;DHT22;11077;50.264;6.798;2023-02-18T12:04:55;8.00;99.90
21830;DHT22;11077;50.264;6.798;2023-02-18T12:07:27;8.00;99.90
21830;DHT22;11077;50.264;6.798;2023-02-18T12:10:00;8.00;99.90
21830;DHT22;11077;50.264;6.798;2023-02-18T12:12:31;8.00;99.90
21830;DHT22;11077;50.264;6.798;2023-02-18T12:14:59;8.00;99.90
21830;DHT22;11077;50.264;6.798;2023-02-18T12:17:44;8.00;99.90
21830;DHT22;11077;50.264;6.798;2023-02-18T12:20:33;8.10;99.90
21830;DHT22;11077;50.264;6.798;2023-02-18T12:23:09;8.10;99.90
21830;DHT22;11077;50.264;6.798;2023-02-18T12:25:48;8.00;99.90
21830;DHT22;11077;50.264;6.798;2023-02-18T12:28:29;8.00;99.90
21830;DHT22;11077;50.264;6.798;2023-02-18T12:31:29;7.90;99.90
21830;DHT22;11077;50.264;6.798;2023-02-18T12:34:16;8.00;99.90
21830;DHT22;11077;50.264;6.798;2023-02-18T12:36:57;7.90;99.90
21830;DHT22;11077;50.264;6.798;2023-02-18T12:39:52;7.90;99.90
21830;DHT22;11077;50.264;6.798;2023-02-18T12:42:37;7.90;99.90
21830;DHT22;11077;50.264;6.798;2023-02-18T12:45:24;7.90;99.90
21830;DHT22;11077;50.264;6.798;2023-02-18T12:51:21;7.90;99.90
21830;DHT22;11077;50.264;6.798;2023-02-18T12:54:19;7.80;99.90
21830;DHT22;11077;50.264;6.798;2023-02-18T12:57:08;7.80;99.90
21830;DHT22;11077;50.264;6.798;2023-02-18T12:59:58;7.80;99.90
21830;DHT22;11077;50.264;6.798;2023-02-18T13:02:51;7.80;99.90
21830;DHT22;11077;50.264;6.798;2023-02-18T13:05:29;7.90;99.90
21830;DHT22;11077;50.264;6.798;2023-02-18T13:08:09;7.90;99.90
21830;DHT22;11077;50.264;6.798;2023-02-18T13:11:00;7.90;99.90
21830;DHT22;11077;50.264;6.798;2023-02-18T13:13:33;7.90;99.90
21830;DHT22;11077;50.264;6.798;2023-02-18T13:16:07;8.00;99.90
21830;DHT22;11077;50.264;6.798;2023-02-18T13:18:38;8.00;99.90
21830;DHT22;11077;50.264;6.798;2023-02-18T13:21:08;7.90;99.90
21830;DHT22;11077;50.264;6.798;2023-02-18T13:23:42;8.00;99.90
21830;DHT22;11077;50.264;6.798;2023-02-18T13:26:13;7.90;99.90
21830;DHT22;11077;50.264;6.798;2023-02-18T13:28:45;7.90;99.90
21830;DHT22;11077;50.264;6.798;2023-02-18T13:31:31;7.90;99.90
21830;DHT22;11077;50.264;6.798;2023-02-18T13:34:04;8.00;99.90
21830;DHT22;11077;50.264;6.798;2023-02-18T13:36:53;8.00;99.90
21830;DHT22;11077;50.264;6.798;2023-02-18T13:39:23;8.00;99.90
21830;DHT22;11077;50.264;6.798;2023-02-18T13:41:51;8.00;99.90
21830;DHT22;11077;50.264;6.798;2023-02-18T13:47:38;8.00;99.90
21830;DHT22;11077;50.264;6.798;2023-02-18T13:50:28;8.00;99.90
21830;DHT22;11077;50.264;6.798;2023-02-18T13:53:30;8.00;99.90
21830;DHT22;11077;50.264;6.798;2023-02-18T13:56:01;8.00;99.90
21830;DHT22;11077;50.264;6.798;2023-02-18T13:58:34;8.00;99.90
21830;DHT22;11077;50.264;6.798;2023-02-18T14:01:04;8.00;99.90
21830;DHT22;11077;50.264;6.798;2023-02-18T14:03:52;8.00;99.90
21830;DHT22;11077;50.264;6.798;2023-02-18T14:06:22;8.00;99.90
21830;DHT22;11077;50.264;6.798;2023-02-18T14:08:51;8.00;99.90
21830;DHT22;11077;50.264;6.798;2023-02-18T14:11:38;8.00;99.90
21830;DHT22;11077;50.264;6.798;2023-02-18T14:17:29;7.90;99.90
21830;DHT22;11077;50.264;6.798;2023-02-18T14:22:59;7.90;99.90
21830;DHT22;11077;50.264;6.798;2023-02-18T14:25:34;8.00;99.90
21830;DHT22;11077;50.264;6.798;2023-02-18T14:28:33;8.00;99.90
21830;DHT22;11077;50.264;6.798;2023-02-18T14:31:00;8.00;99.90
21830;DHT22;11077;50.264;6.798;2023-02-18T14:33:30;8.00;99.90
21830;DHT22;11077;50.264;6.798;2023-02-18T14:36:07;8.00;99.90
21830;DHT22;11077;50.264;6.798;2023-02-18T14:38:44;8.00;99.90
21830;DHT22;11077;50.264;6.798;2023-02-18T14:41:24;8.00;99.90
21830;DHT22;11077;50.264;6.798;2023-02-18T14:47:10;8.00;99.90
21830;DHT22;11077;50.264;6.798;2023-02-18T14:49:42;8.00;99.90
21830;DHT22;11077;50.264;6.798;2023-02-18T14:52:16;8.10;99.90
21830;DHT22;11077;50.264;6.798;2023-02-18T14:54:47;8.00;99.90
21830;DHT22;11077;50.264;6.798;2023-02-18T14:57:17;8.10;99.90
21830;DHT22;11077;50.264;6.798;2023-02-18T14:59:46;8.10;99.90
21830;DHT22;11077;50.264;6.798;2023-02-18T15:02:18;8.10;99.90
21830;DHT22;11077;50.264;6.798;2023-02-18T15:04:46;8.10;99.90
21830;DHT22;11077;50.264;6.798;2023-02-18T15:07:19;8.10;99.90
21830;DHT22;11077;50.264;6.798;2023-02-18T15:09:49;8.10;99.90
21830;DHT22;11077;50.264;6.798;2023-02-18T15:12:20;8.00;99.90
21830;DHT22;11077;50.264;6.798;2023-02-18T15:14:51;8.00;99.90
21830;DHT22;11077;50.264;6.798;2023-02-18T15:17:21;8.00;99.90
21830;DHT22;11077;50.264;6.798;2023-02-18T15:19:53;8.00;99.90
21830;DHT22;11077;50.264;6.798;2023-02-18T15:22:23;8.00;99.90
21830;DHT22;11077;50.264;6.798;2023-02-18T15:24:54;8.00;99.90
21830;DHT22;11077;50.264;6.798;2023-02-18T15:27:23;8.00;99.90
21830;DHT22;11077;50.264;6.798;2023-02-18T15:29:53;8.00;99.90
21830;DHT22;11077;50.264;6.798;2023-02-18T15:32:25;8.00;99.90
21830;DHT22;11077;50.264;6.798;2023-02-18T15:34:55;7.90;99.90
21830;DHT22;11077;50.264;6.798;2023-02-18T15:37:22;8.00;99.90
21830;DHT22;11077;50.264;6.798;2023-02-18T15:39:51;7.90;99.90
21830;DHT22;11077;50.264;6.798;2023-02-18T15:42:25;7.90;99.90
21830;DHT22;11077;50.264;6.798;2023-02-18T15:44:55;7.90;99.90
21830;DHT22;11077;50.264;6.798;2023-02-18T15:47:23;8.00;99.90
21830;DHT22;11077;50.264;6.798;2023-02-18T15:49:52;7.90;99.90
21830;DHT22;11077;50.264;6.798;2023-02-18T15:52:24;7.90;99.90
21830;DHT22;11077;50.264;6.798;2023-02-18T15:54:55;7.90;99.90
21830;DHT22;11077;50.264;6.798;2023-02-18T15:57:26;7.90;99.90
21830;DHT22;11077;50.264;6.798;2023-02-18T15:59:56;7.80;99.90
21830;DHT22;11077;50.264;6.798;2023-02-18T16:02:32;7.90;99.90
21830;DHT22;11077;50.264;6.798;2023-02-18T16:05:01;7.90;99.90
21830;DHT22;11077;50.264;6.798;2023-02-18T16:07:30;7.90;99.90
21830;DHT22;11077;50.264;6.798;2023-02-18T16:10:34;7.90;99.90
21830;DHT22;11077;50.264;6.798;2023-02-18T16:13:15;7.90;99.90
21830;DHT22;11077;50.264;6.798;2023-02-18T16:15:49;7.80;99.90
21830;DHT22;11077;50.264;6.798;2023-02-18T16:18:38;7.70;99.90
21830;DHT22;11077;50.264;6.798;2023-02-18T16:21:24;7.80;99.90
21830;DHT22;11077;50.264;6.798;2023-02-18T16:23:53;7.80;99.90
21830;DHT22;11077;50.264;6.798;2023-02-18T16:26:28;7.70;99.90
21830;DHT22;11077;50.264;6.798;2023-02-18T16:29:01;7.70;99.90
21830;DHT22;11077;50.264;6.798;2023-02-18T16:31:30;7.70;99.90
21830;DHT22;11077;50.264;6.798;2023-02-18T16:33:57;7.70;99.90
21830;DHT22;11077;50.264;6.798;2023-02-18T16:36:26;7.70;99.90
21830;DHT22;11077;50.264;6.798;2023-02-18T16:38:53;7.70;99.90